UAE3 OMDB-EGLL
Flight info
| Callsign | UAE3 |
|---|---|
| Flight time | N/A |
| Altitude | 34000 |
| Route | SENP2F SENPA N571 ALPOB L768 ULADA Q143 MEDGO N697 HIL A788 HLF L604 WEJ L677 CVO L617 NOZ L551 ANTAR UN133 KPC FSK DISOR LONTA UL608 DOLEV BOSNA MARIL OKSIG KUSIB GORPA DOL NIPEL ERKIR BABEG LIRSU ARCKY BUB L608 LOGAN LOGA2H |
| Aircraft | B77W/H-V/N |
Departure
| Time | 2026-04-26 15:06 |
|---|---|
| Airport | Dubai International Airport (OMDB) |
Arrival
| Time | N/A |
|---|---|
| Airport | London Heathrow Airport (EGLL) |
| Time | Latitude | Longitude | Altitude | Speed | Heading |
|---|---|---|---|---|---|
| 2026-04-26 14:37 | 25.24970 | 55.36154 | 27 ft | 0 kts | 212° |
| 2026-04-26 14:50 | 25.24979 | 55.36160 | 27 ft | 2 kts | 212° |
| 2026-04-26 14:51 | 25.24992 | 55.36169 | 26 ft | 2 kts | 212° |
| 2026-04-26 14:51 | 25.25006 | 55.36179 | 26 ft | 2 kts | 212° |
| 2026-04-26 14:51 | 25.25019 | 55.36188 | 25 ft | 2 kts | 212° |
| 2026-04-26 14:51 | 25.25032 | 55.36197 | 25 ft | 2 kts | 232° |
| 2026-04-26 14:52 | 25.25037 | 55.36212 | 23 ft | 2 kts | 298° |
| 2026-04-26 14:52 | 25.25034 | 55.36219 | 24 ft | 0 kts | 298° |
| 2026-04-26 14:54 | 25.25035 | 55.36218 | 27 ft | 2 kts | 298° |
| 2026-04-26 14:54 | 25.25058 | 55.36172 | 27 ft | 9 kts | 300° |
| 2026-04-26 14:54 | 25.25090 | 55.36111 | 27 ft | 9 kts | 302° |
| 2026-04-26 14:55 | 25.25124 | 55.36052 | 27 ft | 9 kts | 303° |
| 2026-04-26 14:55 | 25.25159 | 55.35992 | 27 ft | 9 kts | 302° |
| 2026-04-26 14:55 | 25.25195 | 55.35929 | 27 ft | 10 kts | 303° |
| 2026-04-26 14:55 | 25.25233 | 55.35862 | 27 ft | 10 kts | 302° |
| 2026-04-26 14:56 | 25.25272 | 55.35791 | 27 ft | 12 kts | 301° |
| 2026-04-26 14:56 | 25.25337 | 55.35670 | 27 ft | 22 kts | 300° |
| 2026-04-26 14:56 | 25.25419 | 55.35525 | 27 ft | 22 kts | 303° |
| 2026-04-26 14:56 | 25.25501 | 55.35378 | 27 ft | 22 kts | 301° |
| 2026-04-26 14:57 | 25.25571 | 55.35249 | 27 ft | 16 kts | 300° |
| 2026-04-26 14:57 | 25.25644 | 55.35157 | 27 ft | 16 kts | 343° |
| 2026-04-26 14:57 | 25.25745 | 55.35203 | 27 ft | 16 kts | 33° |
| 2026-04-26 14:57 | 25.25841 | 55.35272 | 27 ft | 16 kts | 33° |
| 2026-04-26 14:58 | 25.25938 | 55.35336 | 27 ft | 16 kts | 32° |
| 2026-04-26 14:58 | 25.25998 | 55.35437 | 27 ft | 16 kts | 80° |
| 2026-04-26 14:58 | 25.25976 | 55.35559 | 27 ft | 16 kts | 117° |
| 2026-04-26 14:58 | 25.25921 | 55.35668 | 27 ft | 16 kts | 122° |
| 2026-04-26 14:59 | 25.25857 | 55.35772 | 27 ft | 16 kts | 124° |
| 2026-04-26 14:59 | 25.25794 | 55.35876 | 27 ft | 16 kts | 122° |
| 2026-04-26 14:59 | 25.25734 | 55.35983 | 27 ft | 16 kts | 122° |
| 2026-04-26 14:59 | 25.25695 | 55.36055 | 27 ft | 16 kts | 120° |
| 2026-04-26 15:00 | 25.25618 | 55.36199 | 27 ft | 16 kts | 120° |
| 2026-04-26 15:00 | 25.25560 | 55.36304 | 27 ft | 16 kts | 122° |
| 2026-04-26 15:00 | 25.25498 | 55.36415 | 27 ft | 16 kts | 122° |
| 2026-04-26 15:00 | 25.25438 | 55.36522 | 27 ft | 16 kts | 122° |
| 2026-04-26 15:01 | 25.25379 | 55.36628 | 27 ft | 16 kts | 122° |
| 2026-04-26 15:01 | 25.25319 | 55.36736 | 27 ft | 16 kts | 122° |
| 2026-04-26 15:01 | 25.25259 | 55.36842 | 27 ft | 16 kts | 122° |
| 2026-04-26 15:01 | 25.25199 | 55.36949 | 27 ft | 16 kts | 122° |
| 2026-04-26 15:02 | 25.25140 | 55.37057 | 27 ft | 16 kts | 121° |
| 2026-04-26 15:02 | 25.25081 | 55.37165 | 27 ft | 16 kts | 122° |
| 2026-04-26 15:02 | 25.25022 | 55.37275 | 27 ft | 19 kts | 120° |
| 2026-04-26 15:02 | 25.24945 | 55.37417 | 27 ft | 22 kts | 123° |
| 2026-04-26 15:03 | 25.24863 | 55.37558 | 27 ft | 22 kts | 122° |
| 2026-04-26 15:03 | 25.24783 | 55.37703 | 27 ft | 22 kts | 120° |
| 2026-04-26 15:03 | 25.24704 | 55.37849 | 27 ft | 22 kts | 122° |
| 2026-04-26 15:03 | 25.24685 | 55.37883 | 27 ft | 1 kts | 120° |
| 2026-04-26 15:04 | 25.24686 | 55.37950 | 27 ft | 2 kts | 57° |
| 2026-04-26 15:04 | 25.24726 | 55.37989 | 27 ft | 9 kts | 36° |
| 2026-04-26 15:05 | 25.24784 | 55.38015 | 27 ft | 9 kts | 360° |
| 2026-04-26 15:05 | 25.24804 | 55.38008 | 27 ft | 9 kts | 336° |
| 2026-04-26 15:05 | 25.24904 | 55.37845 | 27 ft | 44 kts | 302° |
| 2026-04-26 15:05 | 25.25167 | 55.37372 | 27 ft | 100 kts | 301° |
| 2026-04-26 15:06 | 25.25627 | 55.36545 | 27 ft | 149 kts | 301° |
| 2026-04-26 15:06 | 25.26238 | 55.35440 | 56 ft | 181 kts | 302° |
| 2026-04-26 15:06 | 25.26897 | 55.34373 | 656 ft | 161 kts | 303° |
| 2026-04-26 15:06 | 25.27561 | 55.33281 | 1315 ft | 183 kts | 298° |
| 2026-04-26 15:07 | 25.29030 | 55.30546 | 2270 ft | 221 kts | 300° |
| 2026-04-26 15:07 | 25.29482 | 55.29542 | 2577 ft | 221 kts | 288° |
| 2026-04-26 15:07 | 25.29711 | 55.27267 | 3175 ft | 226 kts | 276° |
| 2026-04-26 15:08 | 25.29817 | 55.25517 | 3714 ft | 230 kts | 276° |
| 2026-04-26 15:08 | 25.29879 | 55.24314 | 4072 ft | 232 kts | 275° |
| 2026-04-26 15:08 | 25.29965 | 55.22550 | 4633 ft | 235 kts | 275° |
| 2026-04-26 15:08 | 25.30056 | 55.20692 | 5102 ft | 247 kts | 276° |
| 2026-04-26 15:09 | 25.30153 | 55.18748 | 5579 ft | 258 kts | 276° |
| 2026-04-26 15:09 | 25.30251 | 55.16752 | 6173 ft | 265 kts | 275° |
| 2026-04-26 15:09 | 25.30352 | 55.14706 | 6861 ft | 268 kts | 276° |
| 2026-04-26 15:09 | 25.30454 | 55.12635 | 7569 ft | 270 kts | 275° |
| 2026-04-26 15:10 | 25.30557 | 55.10553 | 8282 ft | 272 kts | 275° |
| 2026-04-26 15:10 | 25.30626 | 55.09147 | 8734 ft | 275 kts | 275° |
| 2026-04-26 15:10 | 25.30768 | 55.06290 | 9641 ft | 279 kts | 275° |
| 2026-04-26 15:10 | 25.30873 | 55.04163 | 10274 ft | 283 kts | 275° |
| 2026-04-26 15:11 | 25.30986 | 55.01909 | 10549 ft | 303 kts | 274° |
| 2026-04-26 15:11 | 25.31105 | 54.99523 | 10712 ft | 325 kts | 274° |
| 2026-04-26 15:11 | 25.31234 | 54.96931 | 10876 ft | 347 kts | 274° |
| 2026-04-26 15:11 | 25.31369 | 54.94185 | 11167 ft | 364 kts | 274° |
| 2026-04-26 15:12 | 25.31507 | 54.91355 | 11693 ft | 372 kts | 274° |
| 2026-04-26 15:12 | 25.31645 | 54.88501 | 12347 ft | 377 kts | 274° |
| 2026-04-26 15:12 | 25.31784 | 54.85600 | 13076 ft | 379 kts | 273° |
| 2026-04-26 15:12 | 25.31925 | 54.82671 | 13779 ft | 382 kts | 273° |
| 2026-04-26 15:13 | 25.32078 | 54.79726 | 14396 ft | 385 kts | 275° |
| 2026-04-26 15:13 | 25.32488 | 54.76780 | 15027 ft | 389 kts | 283° |
| 2026-04-26 15:13 | 25.33151 | 54.73890 | 15648 ft | 392 kts | 283° |
| 2026-04-26 15:13 | 25.33829 | 54.70946 | 16269 ft | 396 kts | 283° |
| 2026-04-26 15:14 | 25.34500 | 54.67999 | 16775 ft | 403 kts | 283° |
| 2026-04-26 15:14 | 25.35187 | 54.64948 | 17101 ft | 414 kts | 282° |
| 2026-04-26 15:14 | 25.35884 | 54.61831 | 17530 ft | 421 kts | 282° |
| 2026-04-26 15:14 | 25.36452 | 54.59286 | 17967 ft | 424 kts | 282° |